Del Rio, Tennessee
Current Conditions -  °F | °C
As of 8:35 PM on Thursday 27 Nov 2014 (Local Time) from KMOR Reporting Station
Overcast Overcast  
Wind Chill: 24°   Ceiling: 2600
Heat Index: 32°   Visibility: 10mi
Dew Point: 25°   Wind: 10mph
Humidity: 75%   Direction: 320°NW
Pressure: 30.37"   Gusts: NA
Location:  35.92°N, 83.03°W
Report Text: KMOR 280135Z AUTO 32009KT 10SM OVC026 00/M04 A3037 RMK
Loading
Personal Weather Stations






























Interactive Weather Map New forecast layout! Learn more

10-Day Weather Forecast

Advertisements
Track Severe Weather on mobile